sensor_id;sensor_type;location;lat;lon;timestamp;temperature;humidity
2447;DHT22;26430;48.818;9.244;2023-06-14T00:02:12;17.80;71.40
2447;DHT22;26430;48.818;9.244;2023-06-14T00:04:38;17.80;72.00
2447;DHT22;26430;48.818;9.244;2023-06-14T00:07:05;17.70;72.20
2447;DHT22;26430;48.818;9.244;2023-06-14T00:09:33;17.50;73.10
2447;DHT22;26430;48.818;9.244;2023-06-14T00:11:59;17.30;73.70
2447;DHT22;26430;48.818;9.244;2023-06-14T00:14:24;17.20;73.50
2447;DHT22;26430;48.818;9.244;2023-06-14T00:16:50;17.10;73.80
2447;DHT22;26430;48.818;9.244;2023-06-14T00:19:17;17.00;74.80
2447;DHT22;26430;48.818;9.244;2023-06-14T00:21:43;16.90;74.60
2447;DHT22;26430;48.818;9.244;2023-06-14T00:24:09;17.00;74.70
2447;DHT22;26430;48.818;9.244;2023-06-14T00:26:34;17.00;74.10
2447;DHT22;26430;48.818;9.244;2023-06-14T00:29:00;17.00;74.00
2447;DHT22;26430;48.818;9.244;2023-06-14T00:31:26;17.00;74.00
2447;DHT22;26430;48.818;9.244;2023-06-14T00:33:51;17.00;74.60
2447;DHT22;26430;48.818;9.244;2023-06-14T00:36:17;17.00;74.80
2447;DHT22;26430;48.818;9.244;2023-06-14T00:38:42;17.00;74.50
2447;DHT22;26430;48.818;9.244;2023-06-14T00:41:08;16.90;74.60
2447;DHT22;26430;48.818;9.244;2023-06-14T00:43:33;17.00;75.20
2447;DHT22;26430;48.818;9.244;2023-06-14T00:46:00;16.90;75.40
2447;DHT22;26430;48.818;9.244;2023-06-14T00:48:26;16.80;75.50
2447;DHT22;26430;48.818;9.244;2023-06-14T00:50:52;16.90;75.60
2447;DHT22;26430;48.818;9.244;2023-06-14T00:53:19;16.90;76.20
2447;DHT22;26430;48.818;9.244;2023-06-14T00:55:46;16.90;76.30
2447;DHT22;26430;48.818;9.244;2023-06-14T00:58:12;16.80;76.60
2447;DHT22;26430;48.818;9.244;2023-06-14T01:00:39;16.70;77.30
2447;DHT22;26430;48.818;9.244;2023-06-14T01:03:04;16.60;77.80
2447;DHT22;26430;48.818;9.244;2023-06-14T01:05:31;16.50;77.70
2447;DHT22;26430;48.818;9.244;2023-06-14T01:10:56;16.40;78.70
2447;DHT22;26430;48.818;9.244;2023-06-14T01:13:33;16.30;79.20
2447;DHT22;26430;48.818;9.244;2023-06-14T01:15:59;16.30;79.20
2447;DHT22;26430;48.818;9.244;2023-06-14T01:18:26;16.20;79.40
2447;DHT22;26430;48.818;9.244;2023-06-14T01:20:53;16.20;79.90
2447;DHT22;26430;48.818;9.244;2023-06-14T01:23:21;16.20;79.90
2447;DHT22;26430;48.818;9.244;2023-06-14T01:25:48;16.20;79.90
2447;DHT22;26430;48.818;9.244;2023-06-14T01:28:19;16.10;80.20
2447;DHT22;26430;48.818;9.244;2023-06-14T01:30:48;16.10;80.30
2447;DHT22;26430;48.818;9.244;2023-06-14T01:33:24;16.10;80.50
2447;DHT22;26430;48.818;9.244;2023-06-14T01:35:52;16.00;80.80
2447;DHT22;26430;48.818;9.244;2023-06-14T01:38:20;16.10;81.40
2447;DHT22;26430;48.818;9.244;2023-06-14T01:40:48;16.00;81.70
2447;DHT22;26430;48.818;9.244;2023-06-14T01:43:14;16.00;81.90
2447;DHT22;26430;48.818;9.244;2023-06-14T01:45:42;16.00;81.90
2447;DHT22;26430;48.818;9.244;2023-06-14T01:48:09;16.00;81.70
2447;DHT22;26430;48.818;9.244;2023-06-14T01:50:35;16.10;81.20
2447;DHT22;26430;48.818;9.244;2023-06-14T01:53:00;16.00;81.70
2447;DHT22;26430;48.818;9.244;2023-06-14T01:55:26;15.80;82.00
2447;DHT22;26430;48.818;9.244;2023-06-14T01:57:52;15.90;82.10
2447;DHT22;26430;48.818;9.244;2023-06-14T02:00:18;15.80;82.70
2447;DHT22;26430;48.818;9.244;2023-06-14T02:02:44;15.80;82.80
2447;DHT22;26430;48.818;9.244;2023-06-14T02:05:11;15.70;83.30
2447;DHT22;26430;48.818;9.244;2023-06-14T02:07:37;15.70;83.50
2447;DHT22;26430;48.818;9.244;2023-06-14T02:10:03;15.60;84.00
2447;DHT22;26430;48.818;9.244;2023-06-14T02:12:29;15.50;84.60
2447;DHT22;26430;48.818;9.244;2023-06-14T02:14:55;15.50;84.70
2447;DHT22;26430;48.818;9.244;2023-06-14T02:17:21;15.50;85.00
2447;DHT22;26430;48.818;9.244;2023-06-14T02:19:47;15.40;85.20
2447;DHT22;26430;48.818;9.244;2023-06-14T02:22:14;15.40;85.60
2447;DHT22;26430;48.818;9.244;2023-06-14T02:24:41;15.30;86.20
2447;DHT22;26430;48.818;9.244;2023-06-14T02:27:06;15.30;86.60
2447;DHT22;26430;48.818;9.244;2023-06-14T02:29:32;15.30;86.60
2447;DHT22;26430;48.818;9.244;2023-06-14T02:31:57;15.20;86.90
2447;DHT22;26430;48.818;9.244;2023-06-14T02:34:23;15.30;87.70
2447;DHT22;26430;48.818;9.244;2023-06-14T02:36:49;15.30;88.10
2447;DHT22;26430;48.818;9.244;2023-06-14T02:39:15;15.20;88.20
2447;DHT22;26430;48.818;9.244;2023-06-14T02:41:40;15.20;89.20
2447;DHT22;26430;48.818;9.244;2023-06-14T02:44:06;15.20;88.80
2447;DHT22;26430;48.818;9.244;2023-06-14T02:46:32;15.20;89.30
2447;DHT22;26430;48.818;9.244;2023-06-14T02:48:58;15.10;89.40
2447;DHT22;26430;48.818;9.244;2023-06-14T02:51:24;15.10;90.10
2447;DHT22;26430;48.818;9.244;2023-06-14T02:53:49;15.00;90.00
2447;DHT22;26430;48.818;9.244;2023-06-14T02:56:15;15.00;90.10
2447;DHT22;26430;48.818;9.244;2023-06-14T02:58:42;15.00;90.10
2447;DHT22;26430;48.818;9.244;2023-06-14T03:01:08;15.00;90.20
2447;DHT22;26430;48.818;9.244;2023-06-14T03:03:38;15.00;89.70
2447;DHT22;26430;48.818;9.244;2023-06-14T03:06:03;15.00;90.10
2447;DHT22;26430;48.818;9.244;2023-06-14T03:08:31;14.90;90.30
2447;DHT22;26430;48.818;9.244;2023-06-14T03:10:58;14.80;90.70
2447;DHT22;26430;48.818;9.244;2023-06-14T03:13:24;14.90;90.80
2447;DHT22;26430;48.818;9.244;2023-06-14T03:15:49;14.90;90.70
2447;DHT22;26430;48.818;9.244;2023-06-14T03:18:18;14.90;90.70
2447;DHT22;26430;48.818;9.244;2023-06-14T03:20:44;14.90;90.80
2447;DHT22;26430;48.818;9.244;2023-06-14T03:23:11;14.80;91.00
2447;DHT22;26430;48.818;9.244;2023-06-14T03:25:37;14.90;91.50
2447;DHT22;26430;48.818;9.244;2023-06-14T03:28:07;14.80;91.60
2447;DHT22;26430;48.818;9.244;2023-06-14T03:30:33;14.90;91.50
2447;DHT22;26430;48.818;9.244;2023-06-14T03:32:58;14.90;91.70
2447;DHT22;26430;48.818;9.244;2023-06-14T03:35:27;14.90;91.90
2447;DHT22;26430;48.818;9.244;2023-06-14T03:37:53;15.00;91.80
2447;DHT22;26430;48.818;9.244;2023-06-14T03:40:19;15.00;91.20
2447;DHT22;26430;48.818;9.244;2023-06-14T03:42:45;14.90;91.10
2447;DHT22;26430;48.818;9.244;2023-06-14T03:45:11;14.90;91.30
2447;DHT22;26430;48.818;9.244;2023-06-14T03:47:36;14.90;91.40
2447;DHT22;26430;48.818;9.244;2023-06-14T03:50:05;14.90;91.60
2447;DHT22;26430;48.818;9.244;2023-06-14T03:52:31;14.90;91.60
2447;DHT22;26430;48.818;9.244;2023-06-14T03:54:58;14.80;91.70
2447;DHT22;26430;48.818;9.244;2023-06-14T03:57:25;14.90;92.30
2447;DHT22;26430;48.818;9.244;2023-06-14T03:59:51;14.90;92.30
2447;DHT22;26430;48.818;9.244;2023-06-14T04:02:17;14.80;92.50
2447;DHT22;26430;48.818;9.244;2023-06-14T04:04:43;14.80;93.00
2447;DHT22;26430;48.818;9.244;2023-06-14T04:07:11;14.80;93.20
2447;DHT22;26430;48.818;9.244;2023-06-14T04:09:37;14.80;93.30
2447;DHT22;26430;48.818;9.244;2023-06-14T04:12:04;14.70;93.40
2447;DHT22;26430;48.818;9.244;2023-06-14T04:14:30;14.70;93.80
2447;DHT22;26430;48.818;9.244;2023-06-14T04:16:58;14.70;94.20
2447;DHT22;26430;48.818;9.244;2023-06-14T04:19:23;14.70;94.60
2447;DHT22;26430;48.818;9.244;2023-06-14T04:21:49;14.70;94.90
2447;DHT22;26430;48.818;9.244;2023-06-14T04:24:14;14.70;95.10
2447;DHT22;26430;48.818;9.244;2023-06-14T04:26:44;14.70;95.20
2447;DHT22;26430;48.818;9.244;2023-06-14T04:29:13;14.70;95.30
2447;DHT22;26430;48.818;9.244;2023-06-14T04:31:46;14.70;94.90
2447;DHT22;26430;48.818;9.244;2023-06-14T04:34:12;14.70;94.90
2447;DHT22;26430;48.818;9.244;2023-06-14T04:36:47;14.70;95.20
2447;DHT22;26430;48.818;9.244;2023-06-14T04:39:21;14.80;95.60
2447;DHT22;26430;48.818;9.244;2023-06-14T04:41:47;14.80;96.10
2447;DHT22;26430;48.818;9.244;2023-06-14T04:44:13;14.80;96.20
2447;DHT22;26430;48.818;9.244;2023-06-14T04:46:42;14.80;96.50
2447;DHT22;26430;48.818;9.244;2023-06-14T04:49:17;14.80;96.90
2447;DHT22;26430;48.818;9.244;2023-06-14T04:51:44;14.80;97.60
2447;DHT22;26430;48.818;9.244;2023-06-14T04:54:11;14.90;97.90
2447;DHT22;26430;48.818;9.244;2023-06-14T04:56:39;14.90;98.70
2447;DHT22;26430;48.818;9.244;2023-06-14T04:59:05;14.90;98.40
2447;DHT22;26430;48.818;9.244;2023-06-14T05:01:31;15.00;98.20
2447;DHT22;26430;48.818;9.244;2023-06-14T05:03:59;15.00;98.50
2447;DHT22;26430;48.818;9.244;2023-06-14T05:06:25;15.00;98.40
2447;DHT22;26430;48.818;9.244;2023-06-14T05:08:54;15.10;98.20
2447;DHT22;26430;48.818;9.244;2023-06-14T05:11:20;15.20;98.10
2447;DHT22;26430;48.818;9.244;2023-06-14T05:13:46;15.20;97.90
2447;DHT22;26430;48.818;9.244;2023-06-14T05:16:12;15.30;98.00
2447;DHT22;26430;48.818;9.244;2023-06-14T05:18:38;15.30;98.00
2447;DHT22;26430;48.818;9.244;2023-06-14T05:21:05;15.40;96.60
2447;DHT22;26430;48.818;9.244;2023-06-14T05:23:31;15.50;96.90
2447;DHT22;26430;48.818;9.244;2023-06-14T05:25:57;15.50;96.80
2447;DHT22;26430;48.818;9.244;2023-06-14T05:28:23;15.50;96.30
2447;DHT22;26430;48.818;9.244;2023-06-14T05:30:49;15.50;96.90
2447;DHT22;26430;48.818;9.244;2023-06-14T05:33:14;15.60;96.70
2447;DHT22;26430;48.818;9.244;2023-06-14T05:35:40;15.70;97.10
2447;DHT22;26430;48.818;9.244;2023-06-14T05:38:05;15.80;97.20
2447;DHT22;26430;48.818;9.244;2023-06-14T05:40:33;16.00;95.80
2447;DHT22;26430;48.818;9.244;2023-06-14T05:42:58;16.20;94.40
2447;DHT22;26430;48.818;9.244;2023-06-14T05:45:24;16.30;94.50
2447;DHT22;26430;48.818;9.244;2023-06-14T05:47:50;16.40;94.40
2447;DHT22;26430;48.818;9.244;2023-06-14T05:50:16;16.60;94.50
2447;DHT22;26430;48.818;9.244;2023-06-14T05:52:41;16.70;93.70
2447;DHT22;26430;48.818;9.244;2023-06-14T05:55:07;16.80;93.40
2447;DHT22;26430;48.818;9.244;2023-06-14T05:57:33;16.90;93.60
2447;DHT22;26430;48.818;9.244;2023-06-14T05:59:58;16.90;93.30
2447;DHT22;26430;48.818;9.244;2023-06-14T06:02:24;17.00;93.70
2447;DHT22;26430;48.818;9.244;2023-06-14T06:04:49;17.10;93.60
2447;DHT22;26430;48.818;9.244;2023-06-14T06:07:15;17.10;92.80
2447;DHT22;26430;48.818;9.244;2023-06-14T06:09:41;17.10;92.90
2447;DHT22;26430;48.818;9.244;2023-06-14T06:12:07;17.00;92.50
2447;DHT22;26430;48.818;9.244;2023-06-14T06:14:33;17.00;92.60
2447;DHT22;26430;48.818;9.244;2023-06-14T06:16:58;17.10;92.60
2447;DHT22;26430;48.818;9.244;2023-06-14T06:19:24;17.10;92.50
2447;DHT22;26430;48.818;9.244;2023-06-14T06:21:50;17.20;92.60
2447;DHT22;26430;48.818;9.244;2023-06-14T06:24:16;17.30;93.00
2447;DHT22;26430;48.818;9.244;2023-06-14T06:26:42;17.30;93.20
2447;DHT22;26430;48.818;9.244;2023-06-14T06:29:07;17.40;93.20
2447;DHT22;26430;48.818;9.244;2023-06-14T06:31:33;17.40;93.20
2447;DHT22;26430;48.818;9.244;2023-06-14T06:33:58;17.40;93.30
2447;DHT22;26430;48.818;9.244;2023-06-14T06:36:24;17.50;92.90
2447;DHT22;26430;48.818;9.244;2023-06-14T06:38:50;17.50;92.70
2447;DHT22;26430;48.818;9.244;2023-06-14T06:41:16;17.70;92.50
2447;DHT22;26430;48.818;9.244;2023-06-14T06:43:41;17.80;92.30
2447;DHT22;26430;48.818;9.244;2023-06-14T06:46:07;17.80;91.60
2447;DHT22;26430;48.818;9.244;2023-06-14T06:48:32;17.70;91.30
2447;DHT22;26430;48.818;9.244;2023-06-14T06:50:58;17.70;91.60
2447;DHT22;26430;48.818;9.244;2023-06-14T06:53:24;17.80;91.20
2447;DHT22;26430;48.818;9.244;2023-06-14T06:55:49;17.90;90.70
2447;DHT22;26430;48.818;9.244;2023-06-14T06:58:15;18.10;90.60
2447;DHT22;26430;48.818;9.244;2023-06-14T07:00:41;18.30;90.70
2447;DHT22;26430;48.818;9.244;2023-06-14T07:03:06;18.40;90.00
2447;DHT22;26430;48.818;9.244;2023-06-14T07:05:32;18.40;90.30
2447;DHT22;26430;48.818;9.244;2023-06-14T07:07:58;18.50;89.50
2447;DHT22;26430;48.818;9.244;2023-06-14T07:10:24;18.60;88.20
2447;DHT22;26430;48.818;9.244;2023-06-14T07:12:52;18.70;87.90
2447;DHT22;26430;48.818;9.244;2023-06-14T07:15:18;18.80;87.90
2447;DHT22;26430;48.818;9.244;2023-06-14T07:17:43;18.90;88.10
2447;DHT22;26430;48.818;9.244;2023-06-14T07:20:09;19.00;87.70
2447;DHT22;26430;48.818;9.244;2023-06-14T07:22:43;19.20;86.70
2447;DHT22;26430;48.818;9.244;2023-06-14T07:25:12;19.10;85.50
2447;DHT22;26430;48.818;9.244;2023-06-14T07:27:42;18.80;87.90
2447;DHT22;26430;48.818;9.244;2023-06-14T07:30:08;18.90;88.90
2447;DHT22;26430;48.818;9.244;2023-06-14T07:32:34;19.00;88.40
2447;DHT22;26430;48.818;9.244;2023-06-14T07:34:59;19.20;87.70
2447;DHT22;26430;48.818;9.244;2023-06-14T07:37:25;19.00;87.90
2447;DHT22;26430;48.818;9.244;2023-06-14T07:39:50;19.00;89.90
2447;DHT22;26430;48.818;9.244;2023-06-14T07:42:16;19.20;88.80
2447;DHT22;26430;48.818;9.244;2023-06-14T07:44:42;19.30;89.20
2447;DHT22;26430;48.818;9.244;2023-06-14T07:47:07;19.40;88.80
2447;DHT22;26430;48.818;9.244;2023-06-14T07:49:33;19.50;87.80
2447;DHT22;26430;48.818;9.244;2023-06-14T07:51:59;19.50;88.50
2447;DHT22;26430;48.818;9.244;2023-06-14T07:54:24;19.50;88.30
2447;DHT22;26430;48.818;9.244;2023-06-14T07:56:52;19.60;87.30
2447;DHT22;26430;48.818;9.244;2023-06-14T07:59:18;19.60;90.10
2447;DHT22;26430;48.818;9.244;2023-06-14T08:01:43;19.40;89.30
2447;DHT22;26430;48.818;9.244;2023-06-14T08:04:13;19.50;89.60
2447;DHT22;26430;48.818;9.244;2023-06-14T08:06:38;19.70;88.20
2447;DHT22;26430;48.818;9.244;2023-06-14T08:09:04;19.90;86.60
2447;DHT22;26430;48.818;9.244;2023-06-14T08:11:31;20.00;86.90
2447;DHT22;26430;48.818;9.244;2023-06-14T08:13:56;20.10;87.00
2447;DHT22;26430;48.818;9.244;2023-06-14T08:16:22;20.20;87.00
2447;DHT22;26430;48.818;9.244;2023-06-14T08:18:48;20.30;87.20
2447;DHT22;26430;48.818;9.244;2023-06-14T08:21:14;20.50;87.30
2447;DHT22;26430;48.818;9.244;2023-06-14T08:23:43;20.60;86.80
2447;DHT22;26430;48.818;9.244;2023-06-14T08:26:09;20.60;87.00
2447;DHT22;26430;48.818;9.244;2023-06-14T08:28:35;20.70;85.60
2447;DHT22;26430;48.818;9.244;2023-06-14T08:31:00;20.80;84.40
2447;DHT22;26430;48.818;9.244;2023-06-14T08:33:27;20.90;84.20
2447;DHT22;26430;48.818;9.244;2023-06-14T08:35:53;20.90;83.70
2447;DHT22;26430;48.818;9.244;2023-06-14T08:38:19;21.00;84.10
2447;DHT22;26430;48.818;9.244;2023-06-14T08:40:48;21.10;84.00
2447;DHT22;26430;48.818;9.244;2023-06-14T08:43:15;21.20;83.10
2447;DHT22;26430;48.818;9.244;2023-06-14T08:45:41;21.30;82.90
2447;DHT22;26430;48.818;9.244;2023-06-14T08:48:07;21.40;84.00
2447;DHT22;26430;48.818;9.244;2023-06-14T08:50:34;21.40;83.00
2447;DHT22;26430;48.818;9.244;2023-06-14T08:53:02;21.50;83.60
2447;DHT22;26430;48.818;9.244;2023-06-14T08:55:28;21.50;81.80
2447;DHT22;26430;48.818;9.244;2023-06-14T08:57:56;21.60;82.60
2447;DHT22;26430;48.818;9.244;2023-06-14T09:00:26;21.70;82.40
2447;DHT22;26430;48.818;9.244;2023-06-14T09:02:53;21.60;81.00
2447;DHT22;26430;48.818;9.244;2023-06-14T09:05:27;21.80;80.20
2447;DHT22;26430;48.818;9.244;2023-06-14T09:07:54;21.90;79.80
2447;DHT22;26430;48.818;9.244;2023-06-14T09:10:27;22.00;79.80
2447;DHT22;26430;48.818;9.244;2023-06-14T09:12:53;22.10;81.50
2447;DHT22;26430;48.818;9.244;2023-06-14T09:15:18;22.30;81.00
2447;DHT22;26430;48.818;9.244;2023-06-14T09:17:44;22.20;78.70
2447;DHT22;26430;48.818;9.244;2023-06-14T09:20:10;22.30;77.50
2447;DHT22;26430;48.818;9.244;2023-06-14T09:22:37;22.40;76.90
2447;DHT22;26430;48.818;9.244;2023-06-14T09:25:03;22.40;76.10
2447;DHT22;26430;48.818;9.244;2023-06-14T09:27:30;22.60;77.30
2447;DHT22;26430;48.818;9.244;2023-06-14T09:29:56;22.60;76.20
2447;DHT22;26430;48.818;9.244;2023-06-14T09:32:22;22.70;76.30
2447;DHT22;26430;48.818;9.244;2023-06-14T09:34:48;22.70;75.50
2447;DHT22;26430;48.818;9.244;2023-06-14T09:37:27;22.90;76.50
2447;DHT22;26430;48.818;9.244;2023-06-14T09:39:53;22.90;75.80
2447;DHT22;26430;48.818;9.244;2023-06-14T09:42:19;23.00;75.30
2447;DHT22;26430;48.818;9.244;2023-06-14T09:44:48;23.00;75.60
2447;DHT22;26430;48.818;9.244;2023-06-14T09:47:15;23.20;73.20
2447;DHT22;26430;48.818;9.244;2023-06-14T09:49:42;23.20;73.10
2447;DHT22;26430;48.818;9.244;2023-06-14T09:52:12;23.20;73.90
2447;DHT22;26430;48.818;9.244;2023-06-14T09:54:43;23.30;73.80
2447;DHT22;26430;48.818;9.244;2023-06-14T09:57:11;23.50;74.60
2447;DHT22;26430;48.818;9.244;2023-06-14T09:59:46;23.60;73.50
2447;DHT22;26430;48.818;9.244;2023-06-14T10:02:25;23.70;69.70
2447;DHT22;26430;48.818;9.244;2023-06-14T10:05:08;23.70;71.60
2447;DHT22;26430;48.818;9.244;2023-06-14T10:07:58;23.80;71.60
2447;DHT22;26430;48.818;9.244;2023-06-14T10:10:24;24.00;69.00
2447;DHT22;26430;48.818;9.244;2023-06-14T10:12:51;24.00;65.40
2447;DHT22;26430;48.818;9.244;2023-06-14T10:15:20;24.10;64.10
2447;DHT22;26430;48.818;9.244;2023-06-14T10:17:56;24.10;67.20
2447;DHT22;26430;48.818;9.244;2023-06-14T10:20:35;24.20;66.60
2447;DHT22;26430;48.818;9.244;2023-06-14T10:23:10;24.50;67.50
2447;DHT22;26430;48.818;9.244;2023-06-14T10:25:37;24.60;67.70
2447;DHT22;26430;48.818;9.244;2023-06-14T10:28:19;24.60;66.40
2447;DHT22;26430;48.818;9.244;2023-06-14T10:31:09;24.40;66.80
2447;DHT22;26430;48.818;9.244;2023-06-14T10:33:56;24.30;69.40
2447;DHT22;26430;48.818;9.244;2023-06-14T10:36:31;24.40;68.20
2447;DHT22;26430;48.818;9.244;2023-06-14T10:41:27;25.00;67.20
2447;DHT22;26430;48.818;9.244;2023-06-14T10:46:59;26.80;61.80
2447;DHT22;26430;48.818;9.244;2023-06-14T10:52:10;25.60;63.30
2447;DHT22;26430;48.818;9.244;2023-06-14T10:57:29;25.20;64.20
2447;DHT22;26430;48.818;9.244;2023-06-14T11:00:00;26.40;61.80
2447;DHT22;26430;48.818;9.244;2023-06-14T11:03:04;27.20;62.00
2447;DHT22;26430;48.818;9.244;2023-06-14T11:11:17;28.30;58.50
2447;DHT22;26430;48.818;9.244;2023-06-14T11:13:45;28.00;59.70
2447;DHT22;26430;48.818;9.244;2023-06-14T11:16:15;27.90;59.60
2447;DHT22;26430;48.818;9.244;2023-06-14T11:18:41;28.10;56.80
2447;DHT22;26430;48.818;9.244;2023-06-14T11:21:07;28.10;56.90
2447;DHT22;26430;48.818;9.244;2023-06-14T11:23:34;28.20;57.40
2447;DHT22;26430;48.818;9.244;2023-06-14T11:26:00;28.30;56.40
2447;DHT22;26430;48.818;9.244;2023-06-14T11:28:38;28.30;56.00
2447;DHT22;26430;48.818;9.244;2023-06-14T11:31:04;28.40;55.10
2447;DHT22;26430;48.818;9.244;2023-06-14T11:33:30;28.50;54.80
2447;DHT22;26430;48.818;9.244;2023-06-14T11:35:56;27.90;54.90
2447;DHT22;26430;48.818;9.244;2023-06-14T11:38:21;28.00;55.20
2447;DHT22;26430;48.818;9.244;2023-06-14T11:40:47;28.10;55.50
2447;DHT22;26430;48.818;9.244;2023-06-14T11:43:12;28.20;55.10
2447;DHT22;26430;48.818;9.244;2023-06-14T11:45:39;28.50;54.80
2447;DHT22;26430;48.818;9.244;2023-06-14T11:48:06;28.50;53.50
2447;DHT22;26430;48.818;9.244;2023-06-14T11:50:32;28.70;52.90
2447;DHT22;26430;48.818;9.244;2023-06-14T11:53:01;28.70;53.70
2447;DHT22;26430;48.818;9.244;2023-06-14T11:55:36;28.90;53.90
2447;DHT22;26430;48.818;9.244;2023-06-14T11:58:02;29.00;52.80
2447;DHT22;26430;48.818;9.244;2023-06-14T12:00:28;29.10;52.40
2447;DHT22;26430;48.818;9.244;2023-06-14T12:02:55;29.30;53.10
2447;DHT22;26430;48.818;9.244;2023-06-14T12:05:24;29.20;52.70
2447;DHT22;26430;48.818;9.244;2023-06-14T12:07:58;29.00;51.00
2447;DHT22;26430;48.818;9.244;2023-06-14T12:10:25;28.40;52.60
2447;DHT22;26430;48.818;9.244;2023-06-14T12:12:56;28.40;53.00
2447;DHT22;26430;48.818;9.244;2023-06-14T12:15:21;28.20;54.20
2447;DHT22;26430;48.818;9.244;2023-06-14T12:17:47;28.30;53.60
2447;DHT22;26430;48.818;9.244;2023-06-14T12:20:13;28.40;53.00
2447;DHT22;26430;48.818;9.244;2023-06-14T12:22:59;28.40;54.00
2447;DHT22;26430;48.818;9.244;2023-06-14T12:27:55;28.70;53.20
2447;DHT22;26430;48.818;9.244;2023-06-14T12:30:21;28.80;52.10
2447;DHT22;26430;48.818;9.244;2023-06-14T12:32:47;29.00;53.80
2447;DHT22;26430;48.818;9.244;2023-06-14T12:35:13;28.90;51.40
2447;DHT22;26430;48.818;9.244;2023-06-14T12:37:39;28.90;53.20
2447;DHT22;26430;48.818;9.244;2023-06-14T12:40:05;28.90;52.90
2447;DHT22;26430;48.818;9.244;2023-06-14T12:42:32;29.40;52.30
2447;DHT22;26430;48.818;9.244;2023-06-14T12:44:59;30.50;50.00
2447;DHT22;26430;48.818;9.244;2023-06-14T12:47:25;31.00;48.10
2447;DHT22;26430;48.818;9.244;2023-06-14T12:49:50;30.70;47.90
2447;DHT22;26430;48.818;9.244;2023-06-14T12:52:16;30.70;47.30
2447;DHT22;26430;48.818;9.244;2023-06-14T12:54:41;30.30;47.40
2447;DHT22;26430;48.818;9.244;2023-06-14T12:57:07;30.30;48.90
2447;DHT22;26430;48.818;9.244;2023-06-14T12:59:33;30.30;49.90
2447;DHT22;26430;48.818;9.244;2023-06-14T13:02:15;31.00;48.30
2447;DHT22;26430;48.818;9.244;2023-06-14T13:04:41;30.60;49.50
2447;DHT22;26430;48.818;9.244;2023-06-14T13:07:06;31.40;48.60
2447;DHT22;26430;48.818;9.244;2023-06-14T13:09:32;32.00;48.90
2447;DHT22;26430;48.818;9.244;2023-06-14T13:11:58;32.20;47.40
2447;DHT22;26430;48.818;9.244;2023-06-14T13:14:23;32.60;46.50
2447;DHT22;26430;48.818;9.244;2023-06-14T13:16:49;32.50;46.70
2447;DHT22;26430;48.818;9.244;2023-06-14T13:19:15;32.80;45.00
2447;DHT22;26430;48.818;9.244;2023-06-14T13:21:41;32.60;44.80
2447;DHT22;26430;48.818;9.244;2023-06-14T13:24:06;32.00;45.80
2447;DHT22;26430;48.818;9.244;2023-06-14T13:26:33;31.00;48.60
2447;DHT22;26430;48.818;9.244;2023-06-14T13:28:59;30.80;47.20
2447;DHT22;26430;48.818;9.244;2023-06-14T13:31:25;30.90;47.70
2447;DHT22;26430;48.818;9.244;2023-06-14T13:33:51;31.10;47.80
2447;DHT22;26430;48.818;9.244;2023-06-14T13:36:16;30.80;47.90
2447;DHT22;26430;48.818;9.244;2023-06-14T13:38:42;30.80;48.00
2447;DHT22;26430;48.818;9.244;2023-06-14T13:41:07;30.50;50.00
2447;DHT22;26430;48.818;9.244;2023-06-14T13:43:33;30.60;48.20
2447;DHT22;26430;48.818;9.244;2023-06-14T13:45:59;30.30;49.40
2447;DHT22;26430;48.818;9.244;2023-06-14T13:48:24;30.60;49.40
2447;DHT22;26430;48.818;9.244;2023-06-14T13:50:50;30.20;49.40
2447;DHT22;26430;48.818;9.244;2023-06-14T13:53:15;29.90;50.60
2447;DHT22;26430;48.818;9.244;2023-06-14T13:55:41;29.20;51.00
2447;DHT22;26430;48.818;9.244;2023-06-14T13:58:06;28.90;50.90
2447;DHT22;26430;48.818;9.244;2023-06-14T14:00:32;28.70;51.90
2447;DHT22;26430;48.818;9.244;2023-06-14T14:02:58;28.00;52.10
2447;DHT22;26430;48.818;9.244;2023-06-14T14:05:25;28.50;53.00
2447;DHT22;26430;48.818;9.244;2023-06-14T14:07:55;28.80;52.20
2447;DHT22;26430;48.818;9.244;2023-06-14T14:10:22;29.40;51.50
2447;DHT22;26430;48.818;9.244;2023-06-14T14:12:48;29.30;51.20
2447;DHT22;26430;48.818;9.244;2023-06-14T14:15:14;29.10;51.40
2447;DHT22;26430;48.818;9.244;2023-06-14T14:17:41;29.00;51.20
2447;DHT22;26430;48.818;9.244;2023-06-14T14:20:07;28.90;51.20
2447;DHT22;26430;48.818;9.244;2023-06-14T14:22:33;28.90;51.90
2447;DHT22;26430;48.818;9.244;2023-06-14T14:24:58;29.00;51.40
2447;DHT22;26430;48.818;9.244;2023-06-14T14:27:24;29.00;51.20
2447;DHT22;26430;48.818;9.244;2023-06-14T14:29:50;28.60;51.60
2447;DHT22;26430;48.818;9.244;2023-06-14T14:32:15;28.50;52.40
2447;DHT22;26430;48.818;9.244;2023-06-14T14:34:41;28.30;51.60
2447;DHT22;26430;48.818;9.244;2023-06-14T14:37:06;28.40;52.00
2447;DHT22;26430;48.818;9.244;2023-06-14T14:39:32;28.40;51.30
2447;DHT22;26430;48.818;9.244;2023-06-14T14:41:58;28.60;50.80
2447;DHT22;26430;48.818;9.244;2023-06-14T14:44:24;29.10;50.70
2447;DHT22;26430;48.818;9.244;2023-06-14T14:46:49;28.80;50.60
2447;DHT22;26430;48.818;9.244;2023-06-14T14:49:15;29.00;50.10
2447;DHT22;26430;48.818;9.244;2023-06-14T14:51:41;29.00;51.00
2447;DHT22;26430;48.818;9.244;2023-06-14T14:54:06;28.90;50.90
2447;DHT22;26430;48.818;9.244;2023-06-14T14:56:32;28.90;51.60
2447;DHT22;26430;48.818;9.244;2023-06-14T14:58:58;29.20;50.90
2447;DHT22;26430;48.818;9.244;2023-06-14T15:01:24;29.00;51.30
2447;DHT22;26430;48.818;9.244;2023-06-14T15:03:49;29.20;50.60
2447;DHT22;26430;48.818;9.244;2023-06-14T15:06:15;29.30;51.10
2447;DHT22;26430;48.818;9.244;2023-06-14T15:08:43;29.40;50.90
2447;DHT22;26430;48.818;9.244;2023-06-14T15:11:08;29.60;50.50
2447;DHT22;26430;48.818;9.244;2023-06-14T15:13:34;29.70;49.90
2447;DHT22;26430;48.818;9.244;2023-06-14T15:15:59;29.70;50.20
2447;DHT22;26430;48.818;9.244;2023-06-14T15:18:25;29.10;49.80
2447;DHT22;26430;48.818;9.244;2023-06-14T15:20:50;28.80;50.60
2447;DHT22;26430;48.818;9.244;2023-06-14T15:23:16;29.00;50.60
2447;DHT22;26430;48.818;9.244;2023-06-14T15:25:46;29.30;50.30
2447;DHT22;26430;48.818;9.244;2023-06-14T15:28:12;29.50;49.30
2447;DHT22;26430;48.818;9.244;2023-06-14T15:30:38;29.50;49.30
2447;DHT22;26430;48.818;9.244;2023-06-14T15:33:04;29.40;49.60
2447;DHT22;26430;48.818;9.244;2023-06-14T15:35:30;29.40;49.50
2447;DHT22;26430;48.818;9.244;2023-06-14T15:37:55;29.50;49.60
2447;DHT22;26430;48.818;9.244;2023-06-14T15:40:21;29.60;49.10
2447;DHT22;26430;48.818;9.244;2023-06-14T15:42:46;29.50;49.60
2447;DHT22;26430;48.818;9.244;2023-06-14T15:45:12;29.50;48.30
2447;DHT22;26430;48.818;9.244;2023-06-14T15:47:38;29.00;50.00
2447;DHT22;26430;48.818;9.244;2023-06-14T15:50:05;29.00;50.70
2447;DHT22;26430;48.818;9.244;2023-06-14T15:52:33;29.00;49.80
2447;DHT22;26430;48.818;9.244;2023-06-14T15:54:59;29.40;48.70
2447;DHT22;26430;48.818;9.244;2023-06-14T15:57:24;29.50;48.30
2447;DHT22;26430;48.818;9.244;2023-06-14T15:59:51;29.50;49.00
2447;DHT22;26430;48.818;9.244;2023-06-14T16:02:17;29.40;49.50
2447;DHT22;26430;48.818;9.244;2023-06-14T16:04:42;29.80;49.40
2447;DHT22;26430;48.818;9.244;2023-06-14T16:07:08;29.70;50.00